createdAt,value
2023-02-02T00:01:32.100Z,34.00
2023-02-02T00:04:01.242Z,32.97
2023-02-02T00:06:32.428Z,39.50
2023-02-02T00:09:03.842Z,33.05
2023-02-02T00:11:32.088Z,30.92
2023-02-02T00:14:00.841Z,38.95
2023-02-02T00:16:42.934Z,42.25
2023-02-02T00:19:15.835Z,28.80
2023-02-02T00:21:44.945Z,40.00
2023-02-02T00:24:17.962Z,37.03
2023-02-02T00:26:48.416Z,33.67
2023-02-02T00:29:19.342Z,28.65
2023-02-02T00:31:49.625Z,43.80
2023-02-02T00:34:19.040Z,31.70
2023-02-02T00:36:49.712Z,42.20
2023-02-02T00:39:22.947Z,30.58
2023-02-02T00:41:51.157Z,35.72
2023-02-02T00:44:36.657Z,38.55
2023-02-02T00:47:05.622Z,42.33
2023-02-02T00:49:33.933Z,36.05
2023-02-02T00:52:02.247Z,38.92
2023-02-02T00:54:32.214Z,37.50
2023-02-02T00:57:00.442Z,32.38
2023-02-02T00:59:28.720Z,36.78
2023-02-02T01:01:57.098Z,31.52
2023-02-02T01:04:26.044Z,34.03
2023-02-02T01:06:54.455Z,40.42
2023-02-02T01:09:22.971Z,37.03
2023-02-02T01:11:52.508Z,33.38
2023-02-02T01:14:20.899Z,31.77
2023-02-02T01:16:49.279Z,28.90
2023-02-02T01:19:18.228Z,26.67
2023-02-02T01:21:46.436Z,35.65
2023-02-02T01:24:14.706Z,32.00
2023-02-02T01:26:42.987Z,37.50
2023-02-02T01:29:13.164Z,28.73
2023-02-02T01:31:42.231Z,33.83
2023-02-02T01:34:11.584Z,33.42
2023-02-02T01:36:39.839Z,34.00
2023-02-02T01:39:08.152Z,37.28
2023-02-02T01:41:36.554Z,35.65
2023-02-02T01:44:07.762Z,40.60
2023-02-02T01:46:38.245Z,33.97
2023-02-02T01:49:12.582Z,41.40
2023-02-02T01:51:49.044Z,34.55
2023-02-02T01:54:22.080Z,35.70
2023-02-02T01:56:56.629Z,37.50
2023-02-02T01:59:26.218Z,30.50
2023-02-02T02:01:56.907Z,30.73
2023-02-02T02:04:27.763Z,36.20
2023-02-02T02:06:56.163Z,31.13
2023-02-02T02:09:24.530Z,34.00
2023-02-02T02:11:54.886Z,26.23
2023-02-02T02:14:42.467Z,38.45
2023-02-02T02:17:42.074Z,34.35
2023-02-02T02:21:08.675Z,33.92
2023-02-02T02:24:53.969Z,41.83
2023-02-02T02:28:04.029Z,27.05
2023-02-02T02:30:59.297Z,30.63
2023-02-02T02:33:37.889Z,31.52
2023-02-02T02:36:19.001Z,31.33
2023-02-02T02:38:57.534Z,33.83
2023-02-02T02:41:34.480Z,38.28
2023-02-02T02:44:07.602Z,37.33
2023-02-02T02:46:39.279Z,29.80
2023-02-02T02:49:12.741Z,34.17
2023-02-02T02:51:47.889Z,40.28
2023-02-02T02:54:26.774Z,34.10
2023-02-02T02:57:10.085Z,39.15
2023-02-02T02:59:50.328Z,33.88
2023-02-02T03:02:35.069Z,34.85
2023-02-02T03:05:19.112Z,39.03
2023-02-02T03:07:53.154Z,32.17
2023-02-02T03:10:26.641Z,30.55
2023-02-02T03:12:55.616Z,36.10
2023-02-02T03:15:24.228Z,30.77
2023-02-02T03:17:54.673Z,29.40
2023-02-02T03:20:24.529Z,36.10
2023-02-02T03:22:52.851Z,33.10
2023-02-02T03:25:21.143Z,38.80
2023-02-02T03:27:49.341Z,30.58
2023-02-02T03:30:18.435Z,38.53
2023-02-02T03:32:47.370Z,24.90
2023-02-02T03:35:15.918Z,29.92
2023-02-02T03:37:45.993Z,32.60
2023-02-02T03:40:15.680Z,29.20
2023-02-02T03:42:43.849Z,31.45
2023-02-02T03:45:12.773Z,30.98
2023-02-02T03:47:41.012Z,31.42
2023-02-02T03:50:11.300Z,34.67
2023-02-02T03:52:39.590Z,32.63
2023-02-02T03:55:10.219Z,29.17
2023-02-02T03:57:38.453Z,31.90
2023-02-02T04:00:09.833Z,39.78
2023-02-02T04:02:41.084Z,34.63
2023-02-02T04:05:10.041Z,31.42
2023-02-02T04:07:38.526Z,23.70
2023-02-02T04:10:09.307Z,32.38
2023-02-02T04:12:37.566Z,41.42
2023-02-02T04:15:07.518Z,34.55
2023-02-02T04:17:36.319Z,33.70
2023-02-02T04:20:06.143Z,36.55
2023-02-02T04:22:35.101Z,35.95
2023-02-02T04:25:03.326Z,31.02
2023-02-02T04:27:34.035Z,29.25
2023-02-02T04:30:02.251Z,35.60
2023-02-02T04:32:30.904Z,30.35
2023-02-02T04:34:59.179Z,31.63
2023-02-02T04:37:27.352Z,32.72
2023-02-02T04:39:55.683Z,37.25
2023-02-02T04:42:24.088Z,32.17
2023-02-02T04:44:53.615Z,33.38
2023-02-02T04:47:21.777Z,35.38
2023-02-02T04:49:50.225Z,33.50
2023-02-02T04:52:18.390Z,30.52
2023-02-02T04:54:46.552Z,29.02
2023-02-02T04:57:14.813Z,42.97
2023-02-02T04:59:43.089Z,31.25
2023-02-02T05:02:12.683Z,31.33
2023-02-02T05:04:41.101Z,32.67
2023-02-02T05:07:09.319Z,39.83
2023-02-02T05:09:37.550Z,30.38
2023-02-02T05:12:06.534Z,28.02
2023-02-02T05:14:34.832Z,28.73
2023-02-02T05:17:03.067Z,26.63
2023-02-02T05:19:32.625Z,31.00
2023-02-02T05:22:01.021Z,34.28
2023-02-02T05:24:29.273Z,37.72
2023-02-02T05:27:00.626Z,26.80
2023-02-02T05:29:29.458Z,36.22
2023-02-02T05:31:58.640Z,34.15
2023-02-02T05:34:27.502Z,30.80
2023-02-02T05:36:57.004Z,33.22
2023-02-02T05:39:25.220Z,32.70
2023-02-02T05:41:53.631Z,30.42
2023-02-02T05:44:22.040Z,36.20
2023-02-02T05:46:50.269Z,36.45
2023-02-02T05:49:18.491Z,34.55
2023-02-02T05:51:49.435Z,33.92
2023-02-02T05:54:20.544Z,29.17
2023-02-02T05:56:50.085Z,33.00
2023-02-02T05:59:18.353Z,25.35
2023-02-02T06:01:47.021Z,29.27
2023-02-02T06:04:17.006Z,28.80
2023-02-02T06:06:46.527Z,37.47
2023-02-02T06:09:15.770Z,34.28
2023-02-02T06:11:46.160Z,41.75
2023-02-02T06:14:14.514Z,33.97
2023-02-02T06:16:42.664Z,34.90
2023-02-02T06:19:10.869Z,35.97
2023-02-02T06:21:39.066Z,33.78
2023-02-02T06:24:08.305Z,36.00
2023-02-02T06:26:36.543Z,35.45
2023-02-02T06:29:06.813Z,33.05
2023-02-02T06:31:35.129Z,32.47
2023-02-02T06:34:03.394Z,36.95
2023-02-02T06:36:31.605Z,28.38
2023-02-02T06:38:59.863Z,36.90
2023-02-02T06:41:28.043Z,40.10
2023-02-02T06:43:56.218Z,39.25
2023-02-02T06:46:25.936Z,24.20
2023-02-02T06:48:54.346Z,35.15
2023-02-02T06:51:22.592Z,24.50
2023-02-02T06:53:50.991Z,31.55
2023-02-02T06:56:19.198Z,35.22
2023-02-02T06:58:47.449Z,32.70
2023-02-02T07:01:16.327Z,30.73
2023-02-02T07:03:50.076Z,36.42
2023-02-02T07:06:20.682Z,35.42
2023-02-02T07:09:00.913Z,38.40
2023-02-02T07:11:31.487Z,38.50
2023-02-02T07:14:00.969Z,39.67
2023-02-02T07:16:29.565Z,36.50
2023-02-02T07:18:59.129Z,38.10
2023-02-02T07:21:30.049Z,38.05
2023-02-02T07:23:59.170Z,37.97
2023-02-02T07:26:27.693Z,35.40
2023-02-02T07:28:56.069Z,37.72
2023-02-02T07:31:26.892Z,29.45
2023-02-02T07:33:55.752Z,36.55
2023-02-02T07:36:26.728Z,29.00
2023-02-02T07:38:57.280Z,37.72
2023-02-02T07:41:26.217Z,38.30
2023-02-02T07:43:54.708Z,37.67
2023-02-02T07:46:23.057Z,30.50
2023-02-02T07:48:55.788Z,36.13
2023-02-02T07:51:26.909Z,29.13
2023-02-02T07:53:58.408Z,39.85
2023-02-02T07:56:28.820Z,29.80
2023-02-02T07:58:58.724Z,29.00
2023-02-02T08:01:28.931Z,42.47
2023-02-02T08:04:00.356Z,37.78
2023-02-02T08:06:32.578Z,38.78
2023-02-02T08:09:02.255Z,31.05
2023-02-02T08:11:31.645Z,43.05
2023-02-02T08:14:01.687Z,39.80
2023-02-02T08:16:32.380Z,47.72
2023-02-02T08:19:01.390Z,39.17
2023-02-02T08:21:33.522Z,39.15
2023-02-02T08:24:02.155Z,37.33
2023-02-02T08:26:31.981Z,42.85
2023-02-02T08:29:03.224Z,31.77
2023-02-02T08:31:34.665Z,34.08
2023-02-02T08:34:03.233Z,32.50
2023-02-02T08:36:35.326Z,35.13
2023-02-02T08:39:05.448Z,30.42
2023-02-02T08:41:44.709Z,36.13
2023-02-02T08:44:16.776Z,34.20
2023-02-02T08:46:45.163Z,32.63
2023-02-02T08:49:14.272Z,37.40
2023-02-02T08:51:44.005Z,32.35
2023-02-02T08:54:12.254Z,32.00
2023-02-02T08:56:40.579Z,34.85
2023-02-02T08:59:08.802Z,36.03
2023-02-02T09:01:37.380Z,32.53
2023-02-02T09:04:07.961Z,37.25
2023-02-02T09:06:38.539Z,33.30
2023-02-02T09:09:13.579Z,32.88
2023-02-02T09:11:45.111Z,29.00
2023-02-02T09:14:15.197Z,32.00
2023-02-02T09:16:43.633Z,27.45
2023-02-02T09:19:12.158Z,30.85
2023-02-02T09:21:40.598Z,31.90
2023-02-02T09:24:12.933Z,21.95
2023-02-02T09:26:41.832Z,35.08
2023-02-02T09:29:14.364Z,29.08
2023-02-02T09:31:42.871Z,33.90
2023-02-02T09:34:13.390Z,25.85
2023-02-02T09:36:42.915Z,33.08
2023-02-02T09:39:15.063Z,32.03
2023-02-02T09:42:55.313Z,32.75
2023-02-02T09:45:32.338Z,24.77
2023-02-02T09:48:17.702Z,31.70
2023-02-02T09:50:53.330Z,24.70
2023-02-02T09:53:53.151Z,26.00
2023-02-02T09:56:28.056Z,27.58
2023-02-02T09:59:13.734Z,32.28
2023-02-02T10:01:48.438Z,23.27
2023-02-02T10:04:20.996Z,31.50
2023-02-02T10:06:53.597Z,29.13
2023-02-02T10:09:34.837Z,29.92
2023-02-02T10:12:19.568Z,35.58
2023-02-02T10:14:55.912Z,32.63
2023-02-02T10:17:41.815Z,30.42
2023-02-02T10:20:27.975Z,27.20
2023-02-02T10:23:04.839Z,31.35
2023-02-02T10:25:36.240Z,26.00
2023-02-02T10:28:17.109Z,27.30
2023-02-02T10:30:48.263Z,39.25
2023-02-02T10:33:30.047Z,25.98
2023-02-02T10:36:07.315Z,26.25
2023-02-02T10:38:43.063Z,26.85
2023-02-02T10:41:22.806Z,22.50
2023-02-02T10:44:10.214Z,27.73
2023-02-02T10:46:42.846Z,21.25
2023-02-02T10:51:55.533Z,27.23
2023-02-02T10:54:59.486Z,27.23
2023-02-02T10:57:47.825Z,25.90
2023-02-02T11:00:25.860Z,25.75
2023-02-02T11:02:54.490Z,25.45
2023-02-02T11:05:44.221Z,30.23
2023-02-02T11:08:16.285Z,22.02
2023-02-02T11:10:46.553Z,27.77
2023-02-02T11:13:24.354Z,21.75
2023-02-02T11:16:21.018Z,28.80
2023-02-02T11:18:50.094Z,23.35
2023-02-02T11:21:26.840Z,25.05
2023-02-02T11:23:58.901Z,22.52
2023-02-02T11:26:28.522Z,23.05
2023-02-02T11:29:00.015Z,27.77
2023-02-02T11:31:36.811Z,22.50
2023-02-02T11:34:20.764Z,23.48
2023-02-02T11:37:12.722Z,20.92
2023-02-02T11:39:41.721Z,24.75
2023-02-02T11:42:17.087Z,24.10
2023-02-02T11:44:51.007Z,20.02
2023-02-02T11:47:26.329Z,24.15
2023-02-02T11:49:55.790Z,25.23
2023-02-02T11:52:32.308Z,22.20
2023-02-02T11:55:10.561Z,30.65
2023-02-02T11:57:38.876Z,16.77
2023-02-02T12:00:27.096Z,27.70
2023-02-02T12:02:58.180Z,17.48
2023-02-02T12:05:38.290Z,18.10
2023-02-02T12:08:09.388Z,24.45
2023-02-02T12:10:44.382Z,26.35
2023-02-02T12:13:29.974Z,25.45
2023-02-02T12:16:12.841Z,20.67
2023-02-02T12:19:01.911Z,23.50
2023-02-02T12:21:43.904Z,26.52
2023-02-02T12:24:30.276Z,24.23
2023-02-02T12:27:14.986Z,15.60
2023-02-02T12:30:01.497Z,24.45
2023-02-02T12:32:46.691Z,19.05
2023-02-02T12:35:35.103Z,21.42
2023-02-02T12:38:17.341Z,19.42
2023-02-02T12:41:14.377Z,15.77
2023-02-02T12:43:45.741Z,17.55
2023-02-02T12:46:48.721Z,18.05
2023-02-02T12:50:00.638Z,17.58
2023-02-02T12:52:51.759Z,18.70
2023-02-02T12:55:30.335Z,17.38
2023-02-02T12:58:13.310Z,25.58
2023-02-02T13:01:18.829Z,21.73
2023-02-02T13:04:33.738Z,17.58
2023-02-02T13:07:46.113Z,17.95
2023-02-02T13:10:24.539Z,20.63
2023-02-02T13:12:58.031Z,19.25
2023-02-02T13:15:35.376Z,18.77
2023-02-02T13:18:10.259Z,22.80
2023-02-02T13:20:43.151Z,19.55
2023-02-02T13:23:20.669Z,20.33
2023-02-02T13:25:54.981Z,13.80
2023-02-02T13:28:39.397Z,17.52
2023-02-02T13:31:17.729Z,14.95
2023-02-02T13:33:50.811Z,17.35
2023-02-02T13:36:28.514Z,14.77
2023-02-02T13:39:03.467Z,16.05
2023-02-02T13:41:32.668Z,18.58
2023-02-02T13:44:07.023Z,16.20
2023-02-02T13:46:43.810Z,15.40
2023-02-02T13:49:18.536Z,16.85
2023-02-02T13:52:08.548Z,13.63
2023-02-02T13:55:33.673Z,17.17
2023-02-02T13:58:34.533Z,16.95
2023-02-02T14:01:07.311Z,17.02
2023-02-02T14:03:39.952Z,14.73
2023-02-02T14:06:16.924Z,18.63
2023-02-02T14:08:50.167Z,19.08
2023-02-02T14:11:29.220Z,17.15
2023-02-02T14:14:25.149Z,16.63
2023-02-02T14:16:56.303Z,20.70
2023-02-02T14:19:56.712Z,14.70
2023-02-02T14:22:47.808Z,14.77
2023-02-02T14:25:53.411Z,13.88
2023-02-02T14:28:47.324Z,15.55
2023-02-02T14:31:44.264Z,15.50
2023-02-02T14:34:33.942Z,16.95
2023-02-02T14:37:48.434Z,16.55
2023-02-02T14:40:48.386Z,19.90
2023-02-02T14:43:46.082Z,18.75
2023-02-02T14:46:47.971Z,13.55
2023-02-02T14:49:20.622Z,18.00
2023-02-02T14:54:36.527Z,14.30
2023-02-02T14:57:23.705Z,18.73
2023-02-02T14:59:54.993Z,20.52
2023-02-02T15:02:34.826Z,14.00
2023-02-02T15:05:43.726Z,18.90
2023-02-02T15:08:30.146Z,14.55
2023-02-02T15:11:28.753Z,12.85
2023-02-02T15:14:16.530Z,23.42
2023-02-02T15:16:47.478Z,12.77
2023-02-02T15:19:28.448Z,16.38
2023-02-02T15:22:00.571Z,18.05
2023-02-02T15:24:31.618Z,19.17
2023-02-02T15:27:03.008Z,19.55
2023-02-02T15:29:43.057Z,12.05
2023-02-02T15:32:20.388Z,14.93
2023-02-02T15:34:54.407Z,12.27
2023-02-02T15:37:29.868Z,16.17
2023-02-02T15:40:02.328Z,14.15
2023-02-02T15:42:54.138Z,16.58
2023-02-02T15:45:43.374Z,10.98
2023-02-02T15:48:24.520Z,13.70
2023-02-02T15:50:55.845Z,16.75
2023-02-02T15:53:28.448Z,16.75
2023-02-02T15:58:30.846Z,13.60
2023-02-02T16:01:03.264Z,16.50
2023-02-02T16:03:47.536Z,13.75
2023-02-02T16:06:18.273Z,15.50
2023-02-02T16:08:47.016Z,13.55
2023-02-02T16:11:18.733Z,10.80
2023-02-02T16:14:02.416Z,15.97
2023-02-02T16:16:33.647Z,11.95
2023-02-02T16:19:15.929Z,23.77
2023-02-02T16:21:53.681Z,15.93
2023-02-02T16:24:27.173Z,13.23
2023-02-02T16:26:59.206Z,15.30
2023-02-02T16:29:29.551Z,16.52
2023-02-02T16:31:58.342Z,14.18
2023-02-02T16:34:46.753Z,15.57
2023-02-02T16:37:22.935Z,12.75
2023-02-02T16:39:51.363Z,13.10
2023-02-02T16:42:28.748Z,15.48
2023-02-02T16:44:59.249Z,16.60
2023-02-02T16:47:41.580Z,15.45
2023-02-02T16:50:33.536Z,15.98
2023-02-02T16:53:06.144Z,15.93
2023-02-02T16:58:26.855Z,19.92
2023-02-02T17:01:15.551Z,19.85
2023-02-02T17:03:53.420Z,20.67
2023-02-02T17:06:41.662Z,18.55
2023-02-02T17:09:34.856Z,19.30
2023-02-02T17:12:31.971Z,15.27
2023-02-02T17:15:05.606Z,13.02
2023-02-02T17:20:02.153Z,16.13
2023-02-02T17:22:31.436Z,15.07
2023-02-02T17:25:01.397Z,15.88
2023-02-02T17:27:34.136Z,17.77
2023-02-02T17:30:03.763Z,12.93
2023-02-02T17:32:31.976Z,16.05
2023-02-02T17:35:00.156Z,13.02
2023-02-02T17:37:28.360Z,12.75
2023-02-02T17:39:56.548Z,11.23
2023-02-02T17:42:30.486Z,17.63
2023-02-02T17:44:58.675Z,12.63
2023-02-02T17:47:26.865Z,13.07
2023-02-02T17:49:55.233Z,13.65
2023-02-02T17:52:23.518Z,14.65
2023-02-02T17:54:51.745Z,14.45
2023-02-02T17:57:20.039Z,14.70
2023-02-02T17:59:49.601Z,12.68
2023-02-02T18:02:18.102Z,13.05
2023-02-02T18:04:46.342Z,11.65
2023-02-02T18:07:14.734Z,13.95
2023-02-02T18:09:42.934Z,15.32
2023-02-02T18:12:11.346Z,24.15
2023-02-02T18:14:39.832Z,14.68
2023-02-02T18:17:11.562Z,17.42
2023-02-02T18:19:44.707Z,17.10
2023-02-02T18:22:13.618Z,19.40
2023-02-02T18:24:42.038Z,14.63
2023-02-02T18:27:10.382Z,18.98
2023-02-02T18:29:38.608Z,28.00
2023-02-02T18:32:07.158Z,20.48
2023-02-02T18:34:37.378Z,20.48
2023-02-02T18:37:05.910Z,21.05
2023-02-02T18:39:34.315Z,22.20
2023-02-02T18:42:02.914Z,17.60
2023-02-02T18:44:31.610Z,19.27
2023-02-02T18:46:59.847Z,19.30
2023-02-02T18:49:28.478Z,17.38
2023-02-02T18:51:58.198Z,29.27
2023-02-02T18:54:26.781Z,15.13
2023-02-02T18:56:55.050Z,16.77
2023-02-02T18:59:23.368Z,17.17
2023-02-02T19:01:52.537Z,20.17
2023-02-02T19:04:20.725Z,17.80
2023-02-02T19:07:06.291Z,17.13
2023-02-02T19:09:36.047Z,20.40
2023-02-02T19:12:12.515Z,17.85
2023-02-02T19:14:42.374Z,20.00
2023-02-02T19:17:21.957Z,15.43
2023-02-02T19:19:50.534Z,15.57
2023-02-02T19:22:22.186Z,19.70
2023-02-02T19:24:52.223Z,19.50
2023-02-02T19:27:22.687Z,15.10
2023-02-02T19:29:55.669Z,18.63
2023-02-02T19:32:26.809Z,16.90
2023-02-02T19:34:58.693Z,20.00
2023-02-02T19:37:29.896Z,22.77
2023-02-02T19:40:22.115Z,17.98
2023-02-02T19:42:56.943Z,21.50
2023-02-02T19:45:30.068Z,19.33
2023-02-02T19:47:59.908Z,20.30
2023-02-02T19:50:33.482Z,23.20
2023-02-02T19:53:06.352Z,21.17
2023-02-02T19:55:37.609Z,15.68
2023-02-02T19:58:18.265Z,21.70
2023-02-02T20:00:47.215Z,20.05
2023-02-02T20:03:20.314Z,19.13
2023-02-02T20:05:51.506Z,20.52
2023-02-02T20:08:26.104Z,19.95
2023-02-02T20:11:00.542Z,15.75
2023-02-02T20:13:39.749Z,16.92
2023-02-02T20:16:13.051Z,17.48
2023-02-02T20:18:45.333Z,18.00
2023-02-02T20:21:24.745Z,15.85
2023-02-02T20:23:55.675Z,21.02
2023-02-02T20:26:27.845Z,17.65
2023-02-02T20:29:00.249Z,19.58
2023-02-02T20:31:37.384Z,19.42
2023-02-02T20:34:26.038Z,16.73
2023-02-02T20:36:58.449Z,17.13
2023-02-02T20:39:34.685Z,16.50
2023-02-02T20:42:05.285Z,20.67
2023-02-02T20:44:36.261Z,18.88
2023-02-02T20:47:05.461Z,25.88
2023-02-02T20:49:35.252Z,19.92
2023-02-02T20:52:07.822Z,24.98
2023-02-02T20:57:06.764Z,20.77
2023-02-02T20:59:35.902Z,23.27
2023-02-02T21:02:05.462Z,23.40
2023-02-02T21:04:33.903Z,25.40
2023-02-02T21:07:02.249Z,25.35
2023-02-02T21:09:30.506Z,19.33
2023-02-02T21:11:58.726Z,22.65
2023-02-02T21:14:28.268Z,21.67
2023-02-02T21:17:09.062Z,24.63
2023-02-02T21:19:42.060Z,22.60
2023-02-02T21:22:10.540Z,29.40
2023-02-02T21:24:42.718Z,24.67
2023-02-02T21:27:13.533Z,18.77
2023-02-02T21:29:43.553Z,21.70
2023-02-02T21:32:12.024Z,23.30
2023-02-02T21:34:40.304Z,20.02
2023-02-02T21:37:15.001Z,26.17
2023-02-02T21:39:48.444Z,21.83
2023-02-02T21:42:19.655Z,20.70
2023-02-02T21:44:54.107Z,27.33
2023-02-02T21:47:33.269Z,23.58
2023-02-02T21:50:15.223Z,20.83
2023-02-02T21:52:43.709Z,19.03
2023-02-02T21:55:39.440Z,22.35
2023-02-02T21:58:24.794Z,21.88
2023-02-02T22:00:58.529Z,22.08
2023-02-02T22:03:35.496Z,21.30
2023-02-02T22:06:25.020Z,20.20
2023-02-02T22:09:00.558Z,23.13
2023-02-02T22:11:35.749Z,23.80
2023-02-02T22:14:19.139Z,19.52
2023-02-02T22:16:52.340Z,21.13
2023-02-02T22:19:29.553Z,21.52
2023-02-02T22:22:19.967Z,18.13
2023-02-02T22:24:57.571Z,22.98
2023-02-02T22:27:37.835Z,21.52
2023-02-02T22:30:21.640Z,24.15
2023-02-02T22:32:51.415Z,19.70
2023-02-02T22:35:20.091Z,18.25
2023-02-02T22:37:48.271Z,19.23
2023-02-02T22:40:16.726Z,23.13
2023-02-02T22:42:44.971Z,22.35
2023-02-02T22:45:13.132Z,18.10
2023-02-02T22:47:41.368Z,14.07
2023-02-02T22:50:11.590Z,17.08
2023-02-02T22:52:39.848Z,14.57
2023-02-02T22:55:09.203Z,15.38
2023-02-02T22:57:37.648Z,19.25
2023-02-02T23:00:10.516Z,16.15
2023-02-02T23:02:38.951Z,21.30
2023-02-02T23:05:08.429Z,15.98
2023-02-02T23:07:39.454Z,16.70
2023-02-02T23:10:09.154Z,15.95
2023-02-02T23:12:37.524Z,21.00
2023-02-02T23:15:06.866Z,19.45
2023-02-02T23:17:35.757Z,19.42
2023-02-02T23:20:05.047Z,22.55
2023-02-02T23:22:33.518Z,15.50
2023-02-02T23:25:04.069Z,15.88
2023-02-02T23:27:45.553Z,15.55
2023-02-02T23:30:15.314Z,23.52
2023-02-02T23:32:43.542Z,22.08
2023-02-02T23:35:11.763Z,16.95
2023-02-02T23:37:40.184Z,19.48
2023-02-02T23:40:12.259Z,21.70
2023-02-02T23:42:40.511Z,16.95
2023-02-02T23:45:10.249Z,19.45
2023-02-02T23:47:38.820Z,21.33
2023-02-02T23:50:09.482Z,16.27
2023-02-02T23:52:39.275Z,16.52
2023-02-02T23:55:10.404Z,16.45
2023-02-02T23:57:39.155Z,18.83
